This is the latest recevied weather packets stored in our database for station/object GBTWP-2. If no packets are shown the sender has not sent any weather packets the latest 10 day(s).
| Time | Temp. | Humidity | Pressure | Rain* | Wind** | Luminosity | Snow |
|---|---|---|---|---|---|---|---|
| 1787508119 | 22.22° C | 56% | 1015.3 hPa | 0 mm | - | 156 W/m² | - |
| 1787507820 | 21.67° C | 57% | 1015.4 hPa | 0 mm | - | 781 W/m² | - |
| 1787507520 | 21.11° C | 59% | 1015.3 hPa | 0 mm | - | 272 W/m² | - |
| 1787507220 | 21.67° C | 57% | 1015.3 hPa | 0 mm | - | 139 W/m² | - |
| 1787506919 | 21.67° C | 56% | 1015.4 hPa | 0 mm | - | 154 W/m² | - |
| 1787506620 | 21.67° C | 57% | 1015.4 hPa | 0 mm | - | 274 W/m² | - |
| 1787506319 | 21.11° C | 61% | 1015.4 hPa | 0 mm | - | 766 W/m² | - |
| 1787506021 | 21.11° C | 60% | 1015.5 hPa | 0 mm | - | 112 W/m² | - |
| 1787505719 | 21.11° C | 58% | 1015.5 hPa | 0 mm | - | 188 W/m² | - |
| 1787505420 | 20.56° C | 62% | 1015.7 hPa | 0 mm | - | 382 W/m² | - |
| 1787505119 | 21.67° C | 58% | 1015.7 hPa | 0 mm | - | 101 W/m² | - |
| 1787504820 | 22.78° C | 57% | 1015.7 hPa | 0 mm | - | 698 W/m² | - |
| 1787504519 | 22.22° C | 58% | 1015.7 hPa | 0 mm | - | 728 W/m² | - |
| 1787504220 | 22.22° C | 60% | 1015.6 hPa | 0 mm | - | 182 W/m² | - |
| 1787503919 | 22.22° C | 59% | 1015.9 hPa | 0 mm | - | 725 W/m² | - |
| 1787503620 | 21.11° C | 63% | 1015.9 hPa | 0 mm | - | 684 W/m² | - |
| 1787503318 | 21.67° C | 61% | 1015.8 hPa | 0 mm | - | 664 W/m² | - |
| 1787503020 | 21.11° C | 61% | 1015.9 hPa | 0 mm | - | 704 W/m² | - |
| 1787502719 | 21.11° C | 64% | 1015.9 hPa | 0 mm | - | 680 W/m² | - |
| 1787502420 | 21.67° C | 64% | 1016 hPa | 0 mm | - | 181 W/m² | - |
| 1787502119 | 21.67° C | 62% | 1016.2 hPa | 0 mm | - | 599 W/m² | - |
| 1787501820 | 21.11° C | 65% | 1016 hPa | 0 mm | - | 630 W/m² | - |
| 1787501519 | 21.11° C | 65% | 1016.1 hPa | 0 mm | - | 610 W/m² | - |
| 1787501220 | 21.11° C | 67% | 1016.3 hPa | 0 mm | - | 458 W/m² | - |
| 1787500919 | 21.11° C | 65% | 1016.2 hPa | 0 mm | - | 640 W/m² | - |
* Rain latest hour (hover to see other rain measurements)
** Current wind speed in m/s (hover to see current wind gust speed)